createdAt,value
2023-02-08T00:01:48.660Z,47.09
2023-02-08T00:04:15.451Z,46.30
2023-02-08T00:06:42.092Z,46.68
2023-02-08T00:09:09.009Z,46.71
2023-02-08T00:11:36.565Z,46.68
2023-02-08T00:14:03.665Z,46.57
2023-02-08T00:16:30.354Z,47.38
2023-02-08T00:18:56.920Z,47.70
2023-02-08T00:21:23.552Z,47.80
2023-02-08T00:23:50.170Z,47.82
2023-02-08T00:26:17.421Z,47.66
2023-02-08T00:28:44.704Z,47.96
2023-02-08T00:31:11.456Z,47.91
2023-02-08T00:33:38.340Z,48.12
2023-02-08T00:36:07.786Z,47.82
2023-02-08T00:38:34.884Z,47.54
2023-02-08T00:41:01.885Z,48.00
2023-02-08T00:43:28.643Z,48.19
2023-02-08T00:45:59.632Z,48.50
2023-02-08T00:48:27.631Z,49.09
2023-02-08T00:51:03.105Z,48.89
2023-02-08T00:53:30.047Z,48.79
2023-02-08T00:55:57.231Z,48.30
2023-02-08T00:58:25.504Z,49.34
2023-02-08T01:00:53.730Z,49.78
2023-02-08T01:03:22.476Z,51.06
2023-02-08T01:05:49.375Z,52.67
2023-02-08T01:08:16.475Z,52.62
2023-02-08T01:10:43.144Z,53.69
2023-02-08T01:13:09.935Z,54.11
2023-02-08T01:15:36.993Z,53.86
2023-02-08T01:18:04.341Z,54.84
2023-02-08T01:20:31.575Z,56.05
2023-02-08T01:22:58.236Z,56.11
2023-02-08T01:25:25.031Z,56.20
2023-02-08T01:27:51.693Z,54.85
2023-02-08T01:30:19.372Z,53.05
2023-02-08T01:32:46.056Z,52.53
2023-02-08T01:35:12.762Z,53.91
2023-02-08T01:37:40.882Z,53.76
2023-02-08T01:40:09.336Z,53.55
2023-02-08T01:42:36.006Z,53.60
2023-02-08T01:45:20.695Z,53.81
2023-02-08T01:47:50.505Z,53.04
2023-02-08T01:50:20.403Z,51.37
2023-02-08T01:52:47.438Z,51.49
2023-02-08T01:55:19.362Z,51.34
2023-02-08T01:57:46.540Z,52.19
2023-02-08T02:00:23.131Z,54.73
2023-02-08T02:02:53.506Z,56.16
2023-02-08T02:05:22.421Z,55.77
2023-02-08T02:07:50.947Z,55.78
2023-02-08T02:10:26.580Z,56.45
2023-02-08T02:12:56.776Z,56.71
2023-02-08T02:15:23.797Z,56.74
2023-02-08T02:17:50.505Z,54.54
2023-02-08T02:20:44.312Z,53.53
2023-02-08T02:23:33.904Z,52.49
2023-02-08T02:26:44.197Z,52.05
2023-02-08T02:29:42.126Z,52.08
2023-02-08T02:32:11.937Z,52.04
2023-02-08T02:34:50.362Z,51.67
2023-02-08T02:37:34.032Z,52.18
2023-02-08T02:40:15.201Z,52.86
2023-02-08T02:43:15.644Z,53.10
2023-02-08T02:45:56.892Z,52.90
2023-02-08T02:48:32.534Z,53.80
2023-02-08T02:51:07.288Z,53.90
2023-02-08T02:53:50.586Z,53.33
2023-02-08T02:56:29.409Z,54.09
2023-02-08T02:59:01.105Z,54.16
2023-02-08T03:01:29.869Z,53.86
2023-02-08T03:03:57.810Z,53.36
2023-02-08T03:06:43.947Z,52.71
2023-02-08T03:09:39.947Z,52.78
2023-02-08T03:12:29.579Z,52.70
2023-02-08T03:14:59.031Z,53.07
2023-02-08T03:17:37.145Z,53.22
2023-02-08T03:20:15.644Z,53.40
2023-02-08T03:22:48.823Z,53.74
2023-02-08T03:25:23.334Z,54.71
2023-02-08T03:28:01.017Z,54.27
2023-02-08T03:31:19.533Z,54.38
2023-02-08T03:33:54.167Z,54.87
2023-02-08T03:36:32.974Z,54.84
2023-02-08T03:39:04.744Z,54.07
2023-02-08T03:41:37.846Z,55.06
2023-02-08T03:44:17.393Z,55.90
2023-02-08T03:46:52.013Z,55.58
2023-02-08T03:49:23.732Z,55.49
2023-02-08T03:51:54.263Z,55.46
2023-02-08T03:54:25.657Z,56.01
2023-02-08T03:57:03.820Z,55.26
2023-02-08T03:59:39.581Z,55.20
2023-02-08T04:02:09.797Z,54.59
2023-02-08T04:04:40.044Z,54.65
2023-02-08T04:07:06.882Z,54.50
2023-02-08T04:09:34.048Z,54.08
2023-02-08T04:12:00.758Z,53.38
2023-02-08T04:14:27.388Z,53.99
2023-02-08T04:16:54.032Z,53.56
2023-02-08T04:19:20.645Z,53.76
2023-02-08T04:21:47.402Z,53.74
2023-02-08T04:24:13.973Z,54.94
2023-02-08T04:26:40.638Z,56.27
2023-02-08T04:29:07.329Z,54.55
2023-02-08T04:31:34.021Z,53.57
2023-02-08T04:34:02.688Z,53.26
2023-02-08T04:36:29.426Z,53.39
2023-02-08T04:38:56.046Z,53.19
2023-02-08T04:41:22.657Z,53.43
2023-02-08T04:43:49.289Z,53.38
2023-02-08T04:46:15.942Z,53.25
2023-02-08T04:48:42.665Z,54.22
2023-02-08T04:51:09.321Z,54.34
2023-02-08T04:53:35.983Z,54.35
2023-02-08T04:56:02.627Z,54.91
2023-02-08T04:58:29.239Z,54.15
2023-02-08T05:00:55.859Z,54.01
2023-02-08T05:03:22.604Z,53.43
2023-02-08T05:05:57.502Z,55.32
2023-02-08T05:08:24.282Z,56.58
2023-02-08T05:10:50.986Z,58.53
2023-02-08T05:13:17.684Z,57.64
2023-02-08T05:15:44.351Z,58.10
2023-02-08T05:18:11.027Z,57.67
2023-02-08T05:20:37.751Z,57.64
2023-02-08T05:23:05.963Z,57.20
2023-02-08T05:25:32.723Z,56.41
2023-02-08T05:28:00.284Z,57.10
2023-02-08T05:30:27.025Z,57.75
2023-02-08T05:32:53.650Z,56.97
2023-02-08T05:35:20.410Z,56.69
2023-02-08T05:37:46.949Z,56.07
2023-02-08T05:40:13.579Z,56.74
2023-02-08T05:42:42.386Z,57.97
2023-02-08T05:45:09.316Z,58.11
2023-02-08T05:47:36.696Z,57.85
2023-02-08T05:50:03.469Z,56.66
2023-02-08T05:52:30.450Z,56.84
2023-02-08T05:54:57.194Z,57.25
2023-02-08T05:57:23.782Z,56.39
2023-02-08T05:59:50.434Z,56.14
2023-02-08T06:02:17.034Z,56.61
2023-02-08T06:04:43.609Z,57.17
2023-02-08T06:07:10.192Z,57.11
2023-02-08T06:09:36.779Z,57.12
2023-02-08T06:12:03.755Z,56.63
2023-02-08T06:14:30.347Z,56.78
2023-02-08T06:16:57.830Z,56.41
2023-02-08T06:19:24.498Z,56.40
2023-02-08T06:21:51.177Z,56.67
2023-02-08T06:24:17.995Z,56.15
2023-02-08T06:26:44.605Z,56.10
2023-02-08T06:29:11.329Z,56.57
2023-02-08T06:31:37.982Z,56.74
2023-02-08T06:34:04.670Z,57.06
2023-02-08T06:36:31.372Z,56.89
2023-02-08T06:38:58.017Z,56.78
2023-02-08T06:41:24.717Z,56.55
2023-02-08T06:43:51.378Z,57.10
2023-02-08T06:46:17.999Z,56.87
2023-02-08T06:48:44.564Z,57.13
2023-02-08T06:51:11.243Z,56.77
2023-02-08T06:53:37.840Z,57.17
2023-02-08T06:56:04.832Z,57.29
2023-02-08T06:58:31.421Z,57.38
2023-02-08T07:00:58.069Z,57.31
2023-02-08T07:03:24.811Z,57.67
2023-02-08T07:06:04.088Z,56.93
2023-02-08T07:08:34.036Z,57.38
2023-02-08T07:11:05.498Z,57.32
2023-02-08T07:13:32.070Z,56.65
2023-02-08T07:15:58.729Z,57.84
2023-02-08T07:18:25.491Z,57.06
2023-02-08T07:20:52.170Z,56.21
2023-02-08T07:23:18.768Z,55.69
2023-02-08T07:25:45.896Z,54.74
2023-02-08T07:28:12.514Z,54.22
2023-02-08T07:30:39.484Z,53.66
2023-02-08T07:33:06.248Z,53.63
2023-02-08T07:35:32.844Z,53.33
2023-02-08T07:37:59.451Z,51.58
2023-02-08T07:40:26.029Z,48.88
2023-02-08T07:42:52.738Z,48.83
2023-02-08T07:45:29.979Z,48.01
2023-02-08T07:47:57.045Z,47.55
2023-02-08T07:50:23.617Z,46.11
2023-02-08T07:52:50.260Z,44.91
2023-02-08T07:55:17.269Z,44.61
2023-02-08T07:57:44.827Z,44.23
2023-02-08T08:00:12.423Z,44.07
2023-02-08T08:02:39.444Z,43.99
2023-02-08T08:05:06.820Z,43.56
2023-02-08T08:07:33.567Z,42.94
2023-02-08T08:10:00.276Z,43.46
2023-02-08T08:12:26.867Z,43.40
2023-02-08T08:14:53.476Z,43.08
2023-02-08T08:17:20.078Z,43.31
2023-02-08T08:19:46.770Z,43.49
2023-02-08T08:22:13.702Z,43.56
2023-02-08T08:24:40.429Z,42.87
2023-02-08T08:27:07.618Z,41.97
2023-02-08T08:29:36.058Z,41.49
2023-02-08T08:32:04.220Z,40.13
2023-02-08T08:34:31.534Z,40.53
2023-02-08T08:37:02.567Z,43.76
2023-02-08T08:39:29.194Z,43.85
2023-02-08T08:42:00.816Z,43.43
2023-02-08T08:44:27.450Z,42.83
2023-02-08T08:46:55.947Z,41.23
2023-02-08T08:49:23.677Z,41.73
2023-02-08T08:51:51.048Z,41.36
2023-02-08T08:54:18.369Z,38.99
2023-02-08T08:56:45.189Z,37.44
2023-02-08T08:59:12.116Z,37.92
2023-02-08T09:01:40.025Z,38.09
2023-02-08T09:04:06.683Z,40.30
2023-02-08T09:06:33.396Z,40.67
2023-02-08T09:09:00.232Z,41.21
2023-02-08T09:11:27.018Z,40.68
2023-02-08T09:13:56.274Z,39.66
2023-02-08T09:16:24.157Z,41.88
2023-02-08T09:18:51.252Z,41.65
2023-02-08T09:21:20.314Z,42.17
2023-02-08T09:23:48.072Z,42.14
2023-02-08T09:26:17.271Z,42.64
2023-02-08T09:28:44.530Z,42.26
2023-02-08T09:31:20.226Z,41.41
2023-02-08T09:33:48.141Z,41.11
2023-02-08T09:36:15.095Z,40.87
2023-02-08T09:38:42.319Z,40.85
2023-02-08T09:41:15.128Z,41.88
2023-02-08T09:43:54.366Z,41.22
2023-02-08T09:46:24.400Z,39.11
2023-02-08T09:48:53.836Z,39.35
2023-02-08T09:51:38.249Z,38.34
2023-02-08T09:54:26.306Z,37.50
2023-02-08T09:56:53.532Z,37.82
2023-02-08T09:59:27.078Z,37.71
2023-02-08T10:01:59.147Z,37.74
2023-02-08T10:04:54.987Z,35.77
2023-02-08T10:07:21.897Z,36.88
2023-02-08T10:09:48.492Z,34.68
2023-02-08T10:12:31.034Z,33.76
2023-02-08T10:15:03.680Z,33.24
2023-02-08T10:18:08.259Z,33.99
2023-02-08T10:21:01.650Z,33.09
2023-02-08T10:24:07.540Z,33.43
2023-02-08T10:26:44.402Z,33.92
2023-02-08T10:29:32.322Z,34.46
2023-02-08T10:32:22.487Z,34.44
2023-02-08T10:35:02.198Z,34.42
2023-02-08T10:37:36.746Z,34.46
2023-02-08T10:40:16.730Z,34.24
2023-02-08T10:42:54.992Z,34.18
2023-02-08T10:45:30.900Z,32.83
2023-02-08T10:48:05.836Z,32.56
2023-02-08T10:50:38.970Z,33.92
2023-02-08T10:53:06.306Z,33.59
2023-02-08T10:55:36.632Z,33.28
2023-02-08T10:58:06.115Z,33.47
2023-02-08T11:00:39.231Z,32.65
2023-02-08T11:03:18.810Z,32.10
2023-02-08T11:05:45.722Z,32.61
2023-02-08T11:08:17.630Z,32.29
2023-02-08T11:10:56.766Z,32.19
2023-02-08T11:13:26.231Z,33.12
2023-02-08T11:15:57.497Z,33.94
2023-02-08T11:18:26.313Z,33.47
2023-02-08T11:20:58.681Z,31.23
2023-02-08T11:23:31.272Z,30.57
2023-02-08T11:26:22.535Z,30.03
2023-02-08T11:29:13.464Z,29.63
2023-02-08T11:31:57.673Z,30.61
2023-02-08T11:34:44.763Z,30.44
2023-02-08T11:37:28.357Z,31.67
2023-02-08T11:39:57.805Z,32.79
2023-02-08T11:42:27.740Z,32.91
2023-02-08T11:44:57.002Z,33.02
2023-02-08T11:47:26.704Z,33.96
2023-02-08T11:49:56.355Z,34.96
2023-02-08T11:52:25.680Z,34.91
2023-02-08T11:54:53.656Z,34.80
2023-02-08T11:57:23.520Z,35.03
2023-02-08T11:59:52.412Z,35.65
2023-02-08T12:02:30.964Z,34.89
2023-02-08T12:04:58.761Z,35.83
2023-02-08T12:07:38.012Z,35.54
2023-02-08T12:10:24.891Z,36.54
2023-02-08T12:13:00.323Z,36.67
2023-02-08T12:15:58.544Z,36.93
2023-02-08T12:18:50.378Z,36.34
2023-02-08T12:21:29.504Z,36.80
2023-02-08T12:24:28.262Z,36.45
2023-02-08T12:27:00.264Z,36.75
2023-02-08T12:29:48.093Z,37.41
2023-02-08T12:32:39.366Z,37.25
2023-02-08T12:35:43.603Z,38.39
2023-02-08T12:38:48.441Z,39.54
2023-02-08T12:41:23.430Z,39.42
2023-02-08T12:44:27.958Z,39.92
2023-02-08T12:47:30.862Z,39.92
2023-02-08T12:50:03.668Z,39.13
2023-02-08T12:52:36.806Z,39.78
2023-02-08T12:55:24.148Z,39.33
2023-02-08T12:57:54.172Z,39.23
2023-02-08T13:00:31.789Z,39.93
2023-02-08T13:03:13.372Z,39.39
2023-02-08T13:05:53.415Z,40.16
2023-02-08T13:08:36.047Z,39.36
2023-02-08T13:11:29.141Z,40.04
2023-02-08T13:14:01.343Z,39.66
2023-02-08T13:16:34.740Z,39.64
2023-02-08T13:19:51.107Z,38.91
2023-02-08T13:22:26.557Z,39.43
2023-02-08T13:25:06.518Z,39.08
2023-02-08T13:27:34.398Z,39.41
2023-02-08T13:30:01.510Z,39.56
2023-02-08T13:32:37.414Z,38.69
2023-02-08T13:35:16.204Z,38.97
2023-02-08T13:37:51.556Z,38.57
2023-02-08T13:40:21.852Z,38.32
2023-02-08T13:42:54.055Z,37.98
2023-02-08T13:45:26.934Z,38.78
2023-02-08T13:48:06.017Z,38.18
2023-02-08T13:50:35.329Z,38.02
2023-02-08T13:53:03.354Z,38.77
2023-02-08T13:55:36.222Z,37.96
2023-02-08T13:58:13.185Z,37.46
2023-02-08T14:00:54.902Z,38.37
2023-02-08T14:03:30.185Z,38.04
2023-02-08T14:06:18.394Z,38.52
2023-02-08T14:08:57.629Z,37.04
2023-02-08T14:11:50.236Z,37.63
2023-02-08T14:14:27.139Z,37.32
2023-02-08T14:17:10.963Z,36.90
2023-02-08T14:19:40.119Z,37.33
2023-02-08T14:22:14.291Z,36.18
2023-02-08T14:24:49.779Z,36.01
2023-02-08T14:27:25.367Z,36.03
2023-02-08T14:30:19.866Z,35.87
2023-02-08T14:32:50.063Z,35.68
2023-02-08T14:35:26.344Z,35.65
2023-02-08T14:38:24.120Z,35.87
2023-02-08T14:40:52.304Z,35.73
2023-02-08T14:43:18.928Z,35.64
2023-02-08T14:45:53.360Z,35.43
2023-02-08T14:48:32.741Z,35.07
2023-02-08T14:51:21.169Z,34.64
2023-02-08T14:54:14.239Z,34.30
2023-02-08T14:56:53.608Z,35.02
2023-02-08T14:59:25.548Z,34.07
2023-02-08T15:02:03.928Z,33.57
2023-02-08T15:04:30.953Z,34.29
2023-02-08T15:07:16.228Z,33.67
2023-02-08T15:09:44.020Z,33.26
2023-02-08T15:12:15.101Z,33.45
2023-02-08T15:14:43.255Z,33.62
2023-02-08T15:17:32.643Z,33.69
2023-02-08T15:20:00.778Z,34.38
2023-02-08T15:22:32.614Z,34.59
2023-02-08T15:25:02.276Z,34.37
2023-02-08T15:27:33.434Z,35.16
2023-02-08T15:30:00.762Z,35.35
2023-02-08T15:32:29.261Z,35.38
2023-02-08T15:35:01.873Z,35.85
2023-02-08T15:37:33.969Z,35.73
2023-02-08T15:40:01.452Z,35.66
2023-02-08T15:42:32.113Z,36.05
2023-02-08T15:45:00.555Z,36.41
2023-02-08T15:47:34.550Z,36.09
2023-02-08T15:50:03.289Z,36.24
2023-02-08T15:52:35.018Z,35.98
2023-02-08T15:55:02.105Z,36.03
2023-02-08T15:57:46.580Z,35.97
2023-02-08T16:00:18.044Z,36.20
2023-02-08T16:02:51.455Z,35.36
2023-02-08T16:05:22.215Z,35.72
2023-02-08T16:07:48.948Z,36.04
2023-02-08T16:10:27.703Z,36.13
2023-02-08T16:12:58.640Z,36.41
2023-02-08T16:15:46.898Z,36.27
2023-02-08T16:18:34.398Z,36.07
2023-02-08T16:21:04.092Z,35.16
2023-02-08T16:23:38.614Z,34.97
2023-02-08T16:26:19.892Z,34.43
2023-02-08T16:28:52.948Z,34.64
2023-02-08T16:31:24.704Z,34.56
2023-02-08T16:34:05.009Z,34.26
2023-02-08T16:36:41.480Z,35.88
2023-02-08T16:39:22.601Z,35.69
2023-02-08T16:42:15.381Z,36.61
2023-02-08T16:45:16.444Z,36.55
2023-02-08T16:47:49.983Z,36.15
2023-02-08T16:50:23.083Z,36.49
2023-02-08T16:52:54.216Z,36.95
2023-02-08T16:55:26.076Z,36.81
2023-02-08T16:57:55.205Z,35.81
2023-02-08T17:00:31.498Z,37.32
2023-02-08T17:02:59.146Z,37.49
2023-02-08T17:05:29.437Z,37.72
2023-02-08T17:07:56.867Z,37.36
2023-02-08T17:10:30.277Z,36.93
2023-02-08T17:13:13.494Z,37.30
2023-02-08T17:15:47.042Z,37.84
2023-02-08T17:18:14.407Z,37.83
2023-02-08T17:20:41.263Z,37.86
2023-02-08T17:23:08.030Z,37.46
2023-02-08T17:25:35.728Z,39.14
2023-02-08T17:28:05.805Z,38.26
2023-02-08T17:30:41.382Z,38.82
2023-02-08T17:33:10.015Z,38.24
2023-02-08T17:35:38.132Z,38.54
2023-02-08T17:38:05.742Z,38.34
2023-02-08T17:40:35.100Z,40.18
2023-02-08T17:43:02.696Z,40.22
2023-02-08T17:45:29.659Z,39.49
2023-02-08T17:48:00.024Z,39.61
2023-02-08T17:50:27.110Z,40.65
2023-02-08T17:52:54.069Z,39.86
2023-02-08T17:55:20.792Z,39.58
2023-02-08T17:57:47.688Z,39.51
2023-02-08T18:00:16.674Z,39.90
2023-02-08T18:02:48.867Z,40.52
2023-02-08T18:05:20.975Z,40.08
2023-02-08T18:07:47.778Z,39.80
2023-02-08T18:10:15.432Z,39.07
2023-02-08T18:12:42.820Z,39.52
2023-02-08T18:15:12.326Z,40.17
2023-02-08T18:17:39.728Z,40.38
2023-02-08T18:20:07.063Z,40.39
2023-02-08T18:22:34.157Z,39.92
2023-02-08T18:25:03.288Z,41.66
2023-02-08T18:27:31.075Z,40.29
2023-02-08T18:29:57.740Z,39.56
2023-02-08T18:32:25.607Z,39.83
2023-02-08T18:34:52.210Z,39.74
2023-02-08T18:37:18.847Z,40.13
2023-02-08T18:39:45.700Z,40.28
2023-02-08T18:42:12.432Z,40.26
2023-02-08T18:44:39.073Z,40.74
2023-02-08T18:47:07.424Z,40.13
2023-02-08T18:49:40.729Z,39.89
2023-02-08T18:52:13.435Z,39.94
2023-02-08T18:54:40.277Z,40.31
2023-02-08T18:57:09.736Z,40.81
2023-02-08T18:59:38.957Z,40.62
2023-02-08T19:02:07.789Z,41.46
2023-02-08T19:04:38.592Z,41.33
2023-02-08T19:07:06.770Z,41.59
2023-02-08T19:09:37.940Z,41.13
2023-02-08T19:12:05.577Z,41.07
2023-02-08T19:14:32.241Z,41.01
2023-02-08T19:16:59.385Z,41.24
2023-02-08T19:19:26.253Z,41.52
2023-02-08T19:21:52.866Z,41.57
2023-02-08T19:24:19.614Z,41.62
2023-02-08T19:26:46.863Z,41.62
2023-02-08T19:29:17.191Z,41.57
2023-02-08T19:31:44.537Z,42.90
2023-02-08T19:34:12.587Z,41.30
2023-02-08T19:36:45.036Z,41.74
2023-02-08T19:39:15.140Z,43.47
2023-02-08T19:41:42.405Z,43.29
2023-02-08T19:44:11.557Z,42.89
2023-02-08T19:46:44.027Z,41.56
2023-02-08T19:49:12.548Z,41.84
2023-02-08T19:51:39.206Z,41.87
2023-02-08T19:54:09.992Z,41.86
2023-02-08T19:56:37.175Z,41.89
2023-02-08T19:59:05.478Z,42.33
2023-02-08T20:01:34.177Z,42.19
2023-02-08T20:04:01.648Z,41.07
2023-02-08T20:06:32.912Z,41.40
2023-02-08T20:09:00.588Z,41.15
2023-02-08T20:11:30.606Z,41.92
2023-02-08T20:13:58.978Z,43.15
2023-02-08T20:16:29.355Z,42.05
2023-02-08T20:18:57.693Z,43.19
2023-02-08T20:21:24.604Z,44.10
2023-02-08T20:23:51.544Z,42.45
2023-02-08T20:26:21.936Z,42.49
2023-02-08T20:28:54.980Z,41.54
2023-02-08T20:31:24.961Z,42.66
2023-02-08T20:33:52.161Z,45.56
2023-02-08T20:36:26.084Z,44.30
2023-02-08T20:38:54.663Z,44.41
2023-02-08T20:41:23.096Z,44.06
2023-02-08T20:43:50.237Z,42.79
2023-02-08T20:46:25.931Z,43.28
2023-02-08T20:48:55.142Z,42.84
2023-02-08T20:51:23.630Z,43.71
2023-02-08T20:53:50.529Z,43.33
2023-02-08T20:56:20.325Z,43.22
2023-02-08T20:58:47.303Z,43.94
2023-02-08T21:01:16.601Z,43.88
2023-02-08T21:03:43.872Z,42.92
2023-02-08T21:06:16.423Z,43.52
2023-02-08T21:08:43.942Z,44.01
2023-02-08T21:11:11.561Z,43.75
2023-02-08T21:13:38.710Z,44.73
2023-02-08T21:16:09.611Z,44.77
2023-02-08T21:18:37.367Z,45.06
2023-02-08T21:21:08.164Z,44.16
2023-02-08T21:23:36.216Z,44.05
2023-02-08T21:26:06.171Z,45.56
2023-02-08T21:28:33.328Z,45.22
2023-02-08T21:31:03.107Z,45.01
2023-02-08T21:33:30.360Z,44.98
2023-02-08T21:36:00.613Z,45.25
2023-02-08T21:38:27.312Z,45.05
2023-02-08T21:40:54.024Z,43.93
2023-02-08T21:43:20.698Z,44.00
2023-02-08T21:45:47.670Z,43.39
2023-02-08T21:48:14.402Z,43.82
2023-02-08T21:50:59.773Z,43.80
2023-02-08T21:53:45.789Z,43.32
2023-02-08T21:56:12.441Z,43.84
2023-02-08T21:58:40.147Z,43.78
2023-02-08T22:01:06.900Z,44.70
2023-02-08T22:03:34.440Z,44.90
2023-02-08T22:06:20.241Z,46.00
2023-02-08T22:08:46.933Z,45.39
2023-02-08T22:11:14.685Z,43.93
2023-02-08T22:13:43.274Z,45.66
2023-02-08T22:16:10.644Z,45.87
2023-02-08T22:18:41.157Z,46.39
2023-02-08T22:21:08.764Z,47.13
2023-02-08T22:23:36.230Z,46.83
2023-02-08T22:26:08.210Z,46.79
2023-02-08T22:28:35.778Z,46.06
2023-02-08T22:31:03.962Z,45.88
2023-02-08T22:33:30.851Z,45.47
2023-02-08T22:35:57.527Z,45.98
2023-02-08T22:38:24.512Z,45.86
2023-02-08T22:40:51.297Z,44.66
2023-02-08T22:43:17.979Z,45.44
2023-02-08T22:45:44.612Z,46.13
2023-02-08T22:48:11.358Z,46.27
2023-02-08T22:50:38.507Z,44.86
2023-02-08T22:53:05.083Z,45.12
2023-02-08T22:55:31.845Z,44.05
2023-02-08T22:57:58.402Z,43.58
2023-02-08T23:00:25.293Z,44.54
2023-02-08T23:02:51.977Z,45.00
2023-02-08T23:05:19.991Z,45.15
2023-02-08T23:07:46.821Z,44.38
2023-02-08T23:10:13.620Z,44.00
2023-02-08T23:12:40.328Z,44.78
2023-02-08T23:15:07.092Z,45.05
2023-02-08T23:17:35.606Z,43.77
2023-02-08T23:20:02.139Z,43.77
2023-02-08T23:22:30.301Z,43.59
2023-02-08T23:24:57.024Z,43.74
2023-02-08T23:27:23.608Z,44.54
2023-02-08T23:29:50.274Z,44.69
2023-02-08T23:32:16.933Z,44.11
2023-02-08T23:34:43.578Z,44.25
2023-02-08T23:37:10.184Z,45.11
2023-02-08T23:39:36.779Z,44.26
2023-02-08T23:42:03.535Z,44.97
2023-02-08T23:44:30.203Z,46.06
2023-02-08T23:46:57.001Z,45.49
2023-02-08T23:49:23.624Z,46.76
2023-02-08T23:51:50.216Z,46.06
2023-02-08T23:54:16.798Z,46.25
2023-02-08T23:56:43.424Z,45.11
2023-02-08T23:59:10.583Z,45.13
